createdAt,value
2023-02-11T00:00:16.378Z,2.06
2023-02-11T00:02:47.475Z,2.07
2023-02-11T00:05:15.147Z,2.07
2023-02-11T00:07:41.954Z,2.03
2023-02-11T00:10:11.137Z,2.03
2023-02-11T00:12:38.341Z,2.06
2023-02-11T00:15:07.788Z,2.09
2023-02-11T00:17:34.477Z,2.12
2023-02-11T00:20:01.157Z,2.16
2023-02-11T00:22:27.944Z,2.18
2023-02-11T00:24:54.940Z,2.19
2023-02-11T00:27:21.591Z,2.22
2023-02-11T00:29:48.237Z,2.23
2023-02-11T00:32:14.903Z,2.23
2023-02-11T00:34:41.573Z,2.26
2023-02-11T00:37:08.226Z,2.26
2023-02-11T00:39:34.887Z,2.27
2023-02-11T00:42:01.618Z,2.27
2023-02-11T00:44:28.326Z,2.28
2023-02-11T00:46:55.048Z,2.28
2023-02-11T00:49:21.807Z,2.29
2023-02-11T00:51:48.559Z,2.32
2023-02-11T00:54:15.314Z,2.34
2023-02-11T00:56:41.964Z,2.34
2023-02-11T00:59:09.267Z,2.36
2023-02-11T01:01:36.182Z,2.35
2023-02-11T01:04:03.076Z,2.36
2023-02-11T01:06:29.781Z,2.36
2023-02-11T01:08:56.622Z,2.36
2023-02-11T01:11:23.758Z,2.36
2023-02-11T01:13:50.601Z,2.37
2023-02-11T01:16:18.979Z,2.37
2023-02-11T01:18:45.741Z,2.37
2023-02-11T01:21:12.490Z,2.36
2023-02-11T01:23:39.207Z,2.36
2023-02-11T01:26:06.079Z,2.35
2023-02-11T01:28:33.293Z,2.36
2023-02-11T01:31:01.082Z,2.36
2023-02-11T01:33:27.911Z,2.35
2023-02-11T01:35:54.617Z,2.37
2023-02-11T01:38:26.040Z,2.35
2023-02-11T01:40:56.408Z,2.36
2023-02-11T01:43:24.338Z,2.35
2023-02-11T01:45:57.335Z,2.33
2023-02-11T01:49:04.029Z,2.31
2023-02-11T01:51:40.451Z,2.30
2023-02-11T01:54:30.256Z,2.33
2023-02-11T01:57:17.384Z,2.36
2023-02-11T01:59:52.791Z,2.37
2023-02-11T02:02:24.058Z,2.40
2023-02-11T02:04:59.887Z,2.40
2023-02-11T02:07:39.673Z,2.40
2023-02-11T02:10:12.141Z,2.41
2023-02-11T02:12:38.956Z,2.40
2023-02-11T02:15:36.333Z,2.41
2023-02-11T02:18:30.169Z,2.42
2023-02-11T02:21:34.227Z,2.41
2023-02-11T02:24:42.258Z,2.38
2023-02-11T02:27:11.985Z,2.35
2023-02-11T02:29:44.446Z,2.34
2023-02-11T02:32:37.929Z,2.35
2023-02-11T02:35:25.851Z,2.35
2023-02-11T02:37:58.332Z,2.35
2023-02-11T02:40:33.490Z,2.36
2023-02-11T02:43:02.190Z,2.36
2023-02-11T02:45:29.065Z,2.40
2023-02-11T02:47:55.805Z,2.42
2023-02-11T02:50:30.904Z,2.43
2023-02-11T02:53:00.473Z,2.47
2023-02-11T02:55:56.840Z,2.48
2023-02-11T02:58:29.236Z,2.50
2023-02-11T03:01:01.803Z,2.50
2023-02-11T03:03:34.606Z,2.49
2023-02-11T03:06:46.097Z,2.47
2023-02-11T03:09:48.249Z,2.49
2023-02-11T03:12:20.110Z,2.48
2023-02-11T03:14:50.265Z,2.46
2023-02-11T03:17:18.493Z,2.49
2023-02-11T03:19:48.267Z,2.52
2023-02-11T03:22:22.056Z,2.52
2023-02-11T03:24:49.070Z,2.53
2023-02-11T03:27:46.970Z,2.57
2023-02-11T03:30:20.141Z,2.63
2023-02-11T03:32:55.526Z,2.64
2023-02-11T03:35:28.106Z,2.65
2023-02-11T03:38:07.488Z,2.64
2023-02-11T03:40:40.264Z,2.61
2023-02-11T03:43:22.875Z,2.60
2023-02-11T03:45:52.581Z,2.59
2023-02-11T03:48:25.649Z,2.58
2023-02-11T03:50:54.263Z,2.53
2023-02-11T03:53:23.011Z,2.48
2023-02-11T03:55:52.528Z,2.41
2023-02-11T03:58:19.573Z,2.34
2023-02-11T04:00:46.530Z,2.31
2023-02-11T04:03:13.679Z,2.27
2023-02-11T04:05:40.720Z,2.24
2023-02-11T04:08:08.271Z,2.20
2023-02-11T04:10:35.418Z,2.14
2023-02-11T04:13:02.098Z,2.08
2023-02-11T04:15:28.756Z,2.05
2023-02-11T04:17:55.869Z,1.99
2023-02-11T04:20:22.765Z,1.88
2023-02-11T04:22:49.558Z,1.79
2023-02-11T04:25:16.295Z,1.74
2023-02-11T04:27:42.966Z,1.74
2023-02-11T04:30:10.185Z,1.77
2023-02-11T04:32:36.818Z,1.72
2023-02-11T04:35:04.192Z,1.67
2023-02-11T04:37:30.896Z,1.63
2023-02-11T04:39:57.570Z,1.61
2023-02-11T04:42:24.853Z,1.62
2023-02-11T04:44:51.497Z,1.58
2023-02-11T04:47:18.424Z,1.58
2023-02-11T04:49:45.151Z,1.60
2023-02-11T04:52:11.878Z,1.60
2023-02-11T04:54:38.675Z,1.61
2023-02-11T04:57:05.532Z,1.59
2023-02-11T04:59:32.264Z,1.59
2023-02-11T05:01:58.908Z,1.61
2023-02-11T05:04:25.636Z,1.63
2023-02-11T05:06:52.544Z,1.62
2023-02-11T05:09:19.221Z,1.61
2023-02-11T05:11:46.072Z,1.59
2023-02-11T05:14:12.727Z,1.51
2023-02-11T05:16:40.784Z,1.49
2023-02-11T05:19:07.614Z,1.47
2023-02-11T05:21:34.354Z,1.45
2023-02-11T05:24:01.132Z,1.40
2023-02-11T05:26:27.897Z,1.38
2023-02-11T05:28:54.639Z,1.34
2023-02-11T05:31:21.549Z,1.32
2023-02-11T05:33:48.203Z,1.30
2023-02-11T05:36:16.816Z,1.28
2023-02-11T05:38:43.892Z,1.21
2023-02-11T05:41:11.944Z,1.13
2023-02-11T05:43:38.745Z,1.07
2023-02-11T05:46:05.875Z,1.01
2023-02-11T05:48:33.106Z,0.97
2023-02-11T05:50:59.852Z,0.92
2023-02-11T05:53:26.654Z,0.92
2023-02-11T05:55:53.526Z,0.89
2023-02-11T05:58:20.218Z,0.85
2023-02-11T06:00:46.993Z,0.81
2023-02-11T06:03:13.703Z,0.77
2023-02-11T06:05:40.463Z,0.74
2023-02-11T06:08:07.128Z,0.70
2023-02-11T06:10:33.823Z,0.66
2023-02-11T06:13:02.255Z,0.64
2023-02-11T06:15:29.024Z,0.60
2023-02-11T06:17:56.008Z,0.58
2023-02-11T06:20:22.662Z,0.58
2023-02-11T06:22:49.319Z,0.58
2023-02-11T06:25:15.986Z,0.58
2023-02-11T06:27:42.690Z,0.61
2023-02-11T06:30:09.907Z,0.57
2023-02-11T06:32:44.428Z,0.57
2023-02-11T06:35:13.322Z,0.53
2023-02-11T06:37:41.209Z,0.47
2023-02-11T06:40:08.166Z,0.45
2023-02-11T06:42:36.270Z,0.42
2023-02-11T06:45:06.111Z,0.35
2023-02-11T06:47:33.028Z,0.31
2023-02-11T06:49:59.724Z,0.28
2023-02-11T06:52:26.425Z,0.23
2023-02-11T06:54:53.140Z,0.20
2023-02-11T06:57:19.869Z,0.18
2023-02-11T06:59:46.534Z,0.17
2023-02-11T07:02:13.248Z,0.13
2023-02-11T07:04:40.130Z,0.12
2023-02-11T07:07:06.903Z,0.10
2023-02-11T07:09:33.724Z,0.09
2023-02-11T07:12:00.402Z,0.05
2023-02-11T07:14:27.088Z,0.04
2023-02-11T07:16:53.775Z,0.02
2023-02-11T07:19:20.443Z,0.02
2023-02-11T07:21:48.762Z,0.02
2023-02-11T07:24:15.535Z,-0.01
2023-02-11T07:26:42.458Z,-0.07
2023-02-11T07:29:09.138Z,-0.09
2023-02-11T07:31:36.015Z,-0.09
2023-02-11T07:34:03.545Z,-0.13
2023-02-11T07:36:32.196Z,-0.12
2023-02-11T07:39:00.203Z,-0.12
2023-02-11T07:41:27.471Z,-0.05
2023-02-11T07:43:54.545Z,-0.02
2023-02-11T07:46:27.187Z,0.01
2023-02-11T07:48:53.924Z,-0.07
2023-02-11T07:51:26.673Z,-0.11
2023-02-11T07:53:53.658Z,-0.18
2023-02-11T07:56:21.395Z,-0.19
2023-02-11T07:58:51.603Z,-0.16
2023-02-11T08:01:22.590Z,-0.20
2023-02-11T08:03:49.604Z,-0.21
2023-02-11T08:06:20.383Z,-0.21
2023-02-11T08:08:47.350Z,-0.22
2023-02-11T08:11:25.974Z,-0.23
2023-02-11T08:13:53.830Z,-0.17
2023-02-11T08:16:24.645Z,-0.14
2023-02-11T08:18:52.869Z,-0.22
2023-02-11T08:21:20.599Z,-0.20
2023-02-11T08:23:47.472Z,-0.22
2023-02-11T08:26:17.436Z,-0.22
2023-02-11T08:28:45.402Z,-0.23
2023-02-11T08:31:18.063Z,-0.21
2023-02-11T08:33:45.356Z,-0.16
2023-02-11T08:36:24.175Z,-0.08
2023-02-11T08:38:51.132Z,-0.04
2023-02-11T08:41:18.459Z,0.02
2023-02-11T08:43:46.347Z,0.03
2023-02-11T08:46:18.907Z,0.01
2023-02-11T08:48:46.834Z,0.01
2023-02-11T08:51:16.491Z,0.05
2023-02-11T08:53:43.270Z,0.09
2023-02-11T08:56:13.513Z,0.12
2023-02-11T08:58:40.913Z,0.10
2023-02-11T09:01:22.633Z,0.10
2023-02-11T09:03:49.744Z,0.13
2023-02-11T09:06:17.746Z,0.12
2023-02-11T09:08:47.475Z,0.11
2023-02-11T09:11:14.462Z,0.09
2023-02-11T09:13:43.309Z,0.08
2023-02-11T09:16:19.059Z,0.11
2023-02-11T09:18:45.901Z,0.12
2023-02-11T09:21:13.431Z,0.16
2023-02-11T09:23:43.697Z,0.18
2023-02-11T09:26:22.667Z,0.15
2023-02-11T09:28:51.375Z,0.14
2023-02-11T09:31:21.682Z,0.16
2023-02-11T09:33:50.784Z,0.20
2023-02-11T09:36:23.732Z,0.26
2023-02-11T09:38:51.410Z,0.25
2023-02-11T09:41:23.991Z,0.15
2023-02-11T09:43:57.195Z,0.06
2023-02-11T09:46:26.594Z,0.01
2023-02-11T09:48:55.849Z,0.02
2023-02-11T09:51:57.826Z,0.07
2023-02-11T09:54:34.157Z,0.07
2023-02-11T09:57:00.908Z,0.10
2023-02-11T09:59:27.687Z,0.17
2023-02-11T10:02:01.234Z,0.22
2023-02-11T10:04:36.887Z,0.22
2023-02-11T10:07:11.116Z,0.21
2023-02-11T10:09:52.236Z,0.19
2023-02-11T10:12:32.837Z,0.18
2023-02-11T10:15:15.133Z,0.15
2023-02-11T10:17:53.991Z,0.09
2023-02-11T10:20:38.915Z,0.08
2023-02-11T10:23:27.734Z,0.07
2023-02-11T10:25:57.174Z,0.02
2023-02-11T10:28:29.957Z,0.04
2023-02-11T10:31:00.825Z,0.06
2023-02-11T10:34:04.653Z,0.01
2023-02-11T10:36:35.211Z,0.01
2023-02-11T10:39:19.768Z,-0.01
2023-02-11T10:42:00.748Z,0.02
2023-02-11T10:44:33.435Z,0.05
2023-02-11T10:47:24.463Z,0.07
2023-02-11T10:49:51.263Z,0.09
2023-02-11T10:52:17.845Z,0.13
2023-02-11T10:55:17.151Z,0.15
2023-02-11T10:57:57.789Z,0.12
2023-02-11T11:00:36.244Z,0.09
2023-02-11T11:03:05.600Z,0.10
2023-02-11T11:05:37.454Z,0.02
2023-02-11T11:08:09.202Z,-0.04
2023-02-11T11:10:47.142Z,-0.13
2023-02-11T11:13:54.361Z,-0.16
2023-02-11T11:16:32.281Z,-0.09
2023-02-11T11:19:08.081Z,-0.05
2023-02-11T11:21:43.950Z,-0.02
2023-02-11T11:24:35.229Z,-0.01
2023-02-11T11:27:04.255Z,0.01
2023-02-11T11:29:38.274Z,0.02
2023-02-11T11:32:32.400Z,0.04
2023-02-11T11:35:06.080Z,0.07
2023-02-11T11:37:37.516Z,0.11
2023-02-11T11:40:11.487Z,0.12
2023-02-11T11:42:40.125Z,0.17
2023-02-11T11:45:15.607Z,0.16
2023-02-11T11:47:45.497Z,0.15
2023-02-11T11:50:25.738Z,0.16
2023-02-11T11:52:56.530Z,0.18
2023-02-11T11:55:32.188Z,0.21
2023-02-11T11:57:58.882Z,0.26
2023-02-11T12:00:36.515Z,0.26
2023-02-11T12:03:35.514Z,0.21
2023-02-11T12:06:45.632Z,0.27
2023-02-11T12:09:38.871Z,0.33
2023-02-11T12:12:17.943Z,0.37
2023-02-11T12:14:59.806Z,0.34
2023-02-11T12:18:01.817Z,0.37
2023-02-11T12:21:06.088Z,0.49
2023-02-11T12:23:44.804Z,0.58
2023-02-11T12:26:19.655Z,0.63
2023-02-11T12:29:21.515Z,0.67
2023-02-11T12:32:15.888Z,0.69
2023-02-11T12:34:42.508Z,0.69
2023-02-11T12:37:24.853Z,0.71
2023-02-11T12:40:15.601Z,0.77
2023-02-11T12:43:16.025Z,0.86
2023-02-11T12:46:33.071Z,0.92
2023-02-11T12:49:29.804Z,0.91
2023-02-11T12:51:59.147Z,0.92
2023-02-11T12:54:45.483Z,0.95
2023-02-11T12:57:31.249Z,0.93
2023-02-11T13:00:15.833Z,0.80
2023-02-11T13:02:45.227Z,0.76
2023-02-11T13:05:29.519Z,0.75
2023-02-11T13:08:04.885Z,0.71
2023-02-11T13:10:38.327Z,0.59
2023-02-11T13:13:21.342Z,0.44
2023-02-11T13:16:17.303Z,0.35
2023-02-11T13:19:04.586Z,0.40
2023-02-11T13:21:56.725Z,0.44
2023-02-11T13:24:59.727Z,0.47
2023-02-11T13:27:45.645Z,0.47
2023-02-11T13:30:36.798Z,0.41
2023-02-11T13:33:06.731Z,0.41
2023-02-11T13:35:42.984Z,0.44
2023-02-11T13:38:22.773Z,0.51
2023-02-11T13:41:18.012Z,0.52
2023-02-11T13:43:45.394Z,0.50
2023-02-11T13:46:14.934Z,0.42
2023-02-11T13:48:53.133Z,0.37
2023-02-11T13:51:37.126Z,0.38
2023-02-11T13:54:05.511Z,0.43
2023-02-11T13:56:36.316Z,0.47
2023-02-11T13:59:06.499Z,0.50
2023-02-11T14:02:14.046Z,0.46
2023-02-11T14:05:41.030Z,0.38
2023-02-11T14:08:26.078Z,0.36
2023-02-11T14:10:54.386Z,0.29
2023-02-11T14:13:34.067Z,0.26
2023-02-11T14:16:28.304Z,0.22
2023-02-11T14:19:03.507Z,0.15
2023-02-11T14:21:34.504Z,0.08
2023-02-11T14:24:01.107Z,0.02
2023-02-11T14:26:49.455Z,0.04
2023-02-11T14:29:18.263Z,0.02
2023-02-11T14:32:06.781Z,-0.03
2023-02-11T14:34:42.425Z,-0.07
2023-02-11T14:37:40.200Z,-0.12
2023-02-11T14:40:23.449Z,-0.13
2023-02-11T14:42:52.057Z,-0.16
2023-02-11T14:45:25.053Z,-0.17
2023-02-11T14:48:00.339Z,-0.21
2023-02-11T14:50:33.701Z,-0.23
2023-02-11T14:53:02.596Z,-0.24
2023-02-11T14:55:33.478Z,-0.25
2023-02-11T14:58:21.764Z,-0.25
2023-02-11T15:00:59.002Z,-0.20
2023-02-11T15:03:27.208Z,-0.16
2023-02-11T15:06:00.722Z,-0.13
2023-02-11T15:08:32.054Z,-0.16
2023-02-11T15:11:02.678Z,-0.19
2023-02-11T15:13:31.565Z,-0.22
2023-02-11T15:16:11.238Z,-0.19
2023-02-11T15:18:44.913Z,-0.24
2023-02-11T15:21:11.787Z,-0.31
2023-02-11T15:23:39.026Z,-0.38
2023-02-11T15:26:21.405Z,-0.44
2023-02-11T15:28:54.337Z,-0.49
2023-02-11T15:31:23.691Z,-0.51
2023-02-11T15:33:52.212Z,-0.54
2023-02-11T15:36:30.575Z,-0.59
2023-02-11T15:39:17.444Z,-0.66
2023-02-11T15:41:44.841Z,-0.69
2023-02-11T15:44:32.272Z,-0.72
2023-02-11T15:46:59.649Z,-0.72
2023-02-11T15:49:27.219Z,-0.74
2023-02-11T15:51:57.085Z,-0.79
2023-02-11T15:54:30.042Z,-0.84
2023-02-11T15:57:03.904Z,-0.87
2023-02-11T15:59:38.404Z,-0.94
2023-02-11T16:02:16.953Z,-1.01
2023-02-11T16:04:56.831Z,-1.05
2023-02-11T16:07:42.118Z,-1.11
2023-02-11T16:10:26.873Z,-1.15
2023-02-11T16:13:01.734Z,-1.18
2023-02-11T16:15:34.607Z,-1.20
2023-02-11T16:18:04.918Z,-1.22
2023-02-11T16:20:31.950Z,-1.21
2023-02-11T16:22:59.147Z,-1.20
2023-02-11T16:25:25.846Z,-1.17
2023-02-11T16:27:53.620Z,-1.13
2023-02-11T16:30:26.309Z,-1.11
2023-02-11T16:32:54.150Z,-1.08
2023-02-11T16:35:20.988Z,-1.08
2023-02-11T16:37:47.683Z,-1.12
2023-02-11T16:40:14.761Z,-1.15
2023-02-11T16:42:41.511Z,-1.19
2023-02-11T16:45:09.060Z,-1.21
2023-02-11T16:47:38.841Z,-1.19
2023-02-11T16:50:09.367Z,-1.20
2023-02-11T16:52:37.561Z,-1.21
2023-02-11T16:55:05.515Z,-1.20
2023-02-11T16:57:32.469Z,-1.21
2023-02-11T16:59:59.400Z,-1.24
2023-02-11T17:02:28.009Z,-1.30
2023-02-11T17:04:55.904Z,-1.34
2023-02-11T17:07:22.658Z,-1.37
2023-02-11T17:09:49.633Z,-1.36
2023-02-11T17:12:16.390Z,-1.35
2023-02-11T17:14:43.069Z,-1.37
2023-02-11T17:17:10.798Z,-1.38
2023-02-11T17:19:38.092Z,-1.39
2023-02-11T17:22:04.969Z,-1.38
2023-02-11T17:24:31.984Z,-1.36
2023-02-11T17:26:58.879Z,-1.39
2023-02-11T17:29:26.205Z,-1.47
2023-02-11T17:31:53.568Z,-1.55
2023-02-11T17:34:21.709Z,-1.59
2023-02-11T17:36:49.052Z,-1.64
2023-02-11T17:39:15.921Z,-1.68
2023-02-11T17:41:42.686Z,-1.73
2023-02-11T17:44:12.599Z,-1.75
2023-02-11T17:46:39.627Z,-1.79
2023-02-11T17:49:06.335Z,-1.81
2023-02-11T17:51:36.082Z,-1.82
2023-02-11T17:54:07.674Z,-1.82
2023-02-11T17:56:36.370Z,-1.84
2023-02-11T17:59:04.029Z,-1.86
2023-02-11T18:01:32.530Z,-1.84
2023-02-11T18:03:59.574Z,-1.79
2023-02-11T18:06:26.444Z,-1.76
2023-02-11T18:08:54.570Z,-1.72
2023-02-11T18:11:24.323Z,-1.77
2023-02-11T18:13:54.498Z,-1.83
2023-02-11T18:16:23.055Z,-1.89
2023-02-11T18:18:51.422Z,-1.93
2023-02-11T18:21:20.281Z,-1.96
2023-02-11T18:23:48.211Z,-1.97
2023-02-11T18:26:17.254Z,-1.97
2023-02-11T18:28:45.984Z,-1.96
2023-02-11T18:31:14.295Z,-1.96
2023-02-11T18:33:41.525Z,-2.00
2023-02-11T18:36:10.724Z,-2.04
2023-02-11T18:38:37.727Z,-2.07
2023-02-11T18:41:05.060Z,-2.10
2023-02-11T18:43:33.733Z,-2.10
2023-02-11T18:46:01.450Z,-2.08
2023-02-11T18:48:28.677Z,-2.05
2023-02-11T18:50:55.884Z,-2.04
2023-02-11T18:53:23.687Z,-2.02
2023-02-11T18:55:51.117Z,-2.03
2023-02-11T18:58:18.359Z,-2.06
2023-02-11T19:00:46.927Z,-2.09
2023-02-11T19:03:13.641Z,-2.13
2023-02-11T19:05:50.686Z,-2.15
2023-02-11T19:08:17.567Z,-2.19
2023-02-11T19:10:46.743Z,-2.19
2023-02-11T19:13:14.074Z,-2.20
2023-02-11T19:15:45.583Z,-2.16
2023-02-11T19:18:14.757Z,-2.14
2023-02-11T19:20:44.918Z,-2.13
2023-02-11T19:23:11.639Z,-2.12
2023-02-11T19:25:44.566Z,-2.09
2023-02-11T19:28:11.356Z,-2.09
2023-02-11T19:30:38.122Z,-2.09
2023-02-11T19:33:05.215Z,-2.07
2023-02-11T19:35:35.741Z,-2.07
2023-02-11T19:38:04.174Z,-2.07
2023-02-11T19:40:31.608Z,-2.04
2023-02-11T19:42:58.283Z,-2.03
2023-02-11T19:45:26.452Z,-2.00
2023-02-11T19:47:57.294Z,-2.01
2023-02-11T19:50:24.542Z,-2.00
2023-02-11T19:52:51.238Z,-2.00
2023-02-11T19:55:18.032Z,-2.00
2023-02-11T19:57:44.761Z,-2.00
2023-02-11T20:00:11.869Z,-2.02
2023-02-11T20:02:39.875Z,-2.06
2023-02-11T20:05:07.552Z,-2.04
2023-02-11T20:07:34.249Z,-2.05
2023-02-11T20:10:00.921Z,-2.07
2023-02-11T20:12:27.638Z,-2.08
2023-02-11T20:14:54.289Z,-2.10
2023-02-11T20:17:21.053Z,-2.12
2023-02-11T20:19:47.678Z,-2.15
2023-02-11T20:22:14.645Z,-2.15
2023-02-11T20:24:41.470Z,-2.13
2023-02-11T20:27:10.501Z,-2.15
2023-02-11T20:29:38.508Z,-2.17
2023-02-11T20:32:06.479Z,-2.18
2023-02-11T20:34:33.474Z,-2.20
2023-02-11T20:37:00.645Z,-2.20
2023-02-11T20:39:27.431Z,-2.21
2023-02-11T20:41:54.878Z,-2.23
2023-02-11T20:44:22.495Z,-2.23
2023-02-11T20:46:49.997Z,-2.27
2023-02-11T20:49:22.185Z,-2.29
2023-02-11T20:51:49.598Z,-2.32
2023-02-11T20:54:18.780Z,-2.34
2023-02-11T20:56:48.071Z,-2.34
2023-02-11T20:59:15.234Z,-2.33
2023-02-11T21:01:44.248Z,-2.33
2023-02-11T21:04:14.565Z,-2.34
2023-02-11T21:06:49.950Z,-2.37
2023-02-11T21:09:20.222Z,-2.38
2023-02-11T21:11:47.676Z,-2.35
2023-02-11T21:14:15.120Z,-2.39
2023-02-11T21:16:42.290Z,-2.38
2023-02-11T21:19:09.021Z,-2.38
2023-02-11T21:21:37.599Z,-2.38
2023-02-11T21:24:05.415Z,-2.41
2023-02-11T21:26:32.365Z,-2.41
2023-02-11T21:28:59.131Z,-2.44
2023-02-11T21:31:29.001Z,-2.48
2023-02-11T21:33:56.897Z,-2.49
2023-02-11T21:36:23.962Z,-2.52
2023-02-11T21:38:51.212Z,-2.53
2023-02-11T21:41:20.007Z,-2.52
2023-02-11T21:43:46.673Z,-2.53
2023-02-11T21:46:15.776Z,-2.51
2023-02-11T21:48:42.828Z,-2.50
2023-02-11T21:51:17.524Z,-2.52
2023-02-11T21:53:44.456Z,-2.52
2023-02-11T21:56:17.338Z,-2.52
2023-02-11T21:58:45.888Z,-2.54
2023-02-11T22:01:18.805Z,-2.56
2023-02-11T22:03:46.416Z,-2.57
2023-02-11T22:06:21.367Z,-2.59
2023-02-11T22:08:52.407Z,-2.63
2023-02-11T22:11:20.057Z,-2.65
2023-02-11T22:13:47.392Z,-2.68
2023-02-11T22:16:16.827Z,-2.70
2023-02-11T22:18:47.020Z,-2.71
2023-02-11T22:21:16.871Z,-2.70
2023-02-11T22:23:44.037Z,-2.70
2023-02-11T22:26:29.131Z,-2.72
2023-02-11T22:28:56.004Z,-2.73
2023-02-11T22:31:30.018Z,-2.75
2023-02-11T22:33:57.302Z,-2.74
2023-02-11T22:36:38.456Z,-2.75
2023-02-11T22:39:09.228Z,-2.74
2023-02-11T22:41:36.034Z,-2.74
2023-02-11T22:44:02.718Z,-2.74
2023-02-11T22:46:29.545Z,-2.72
2023-02-11T22:48:56.808Z,-2.71
2023-02-11T22:51:25.794Z,-2.69
2023-02-11T22:53:54.205Z,-2.68
2023-02-11T22:56:21.866Z,-2.68
2023-02-11T22:58:49.264Z,-2.69
2023-02-11T23:01:16.681Z,-2.73
2023-02-11T23:03:43.823Z,-2.82
2023-02-11T23:06:11.621Z,-2.89
2023-02-11T23:08:40.050Z,-2.92
2023-02-11T23:11:15.884Z,-2.95
2023-02-11T23:13:44.543Z,-2.92
2023-02-11T23:16:14.637Z,-2.93
2023-02-11T23:18:43.150Z,-2.93
2023-02-11T23:21:13.690Z,-2.93
2023-02-11T23:23:40.422Z,-2.91
2023-02-11T23:26:10.561Z,-2.90
2023-02-11T23:28:37.435Z,-2.90
2023-02-11T23:31:37.457Z,-2.90
2023-02-11T23:34:04.861Z,-2.90
2023-02-11T23:36:31.604Z,-2.90
2023-02-11T23:38:58.374Z,-2.89
2023-02-11T23:41:26.373Z,-2.86
2023-02-11T23:43:55.141Z,-2.84
2023-02-11T23:46:23.319Z,-2.83
2023-02-11T23:48:51.180Z,-2.82
2023-02-11T23:51:19.188Z,-2.80
2023-02-11T23:53:46.329Z,-2.78
2023-02-11T23:56:19.702Z,-2.77
2023-02-11T23:58:50.288Z,-2.77
